createdAt,value
2022-10-11T00:01:19.768Z,20.50
2022-10-11T00:03:46.349Z,20.41
2022-10-11T00:06:12.903Z,20.39
2022-10-11T00:08:39.392Z,20.33
2022-10-11T00:11:07.671Z,20.38
2022-10-11T00:13:34.386Z,20.26
2022-10-11T00:16:01.288Z,20.22
2022-10-11T00:18:28.691Z,20.21
2022-10-11T00:21:06.927Z,20.24
2022-10-11T00:23:34.254Z,20.20
2022-10-11T00:26:04.079Z,20.13
2022-10-11T00:28:33.463Z,20.02
2022-10-11T00:31:00.387Z,19.99
2022-10-11T00:33:26.918Z,19.98
2022-10-11T00:35:53.416Z,19.87
2022-10-11T00:38:20.016Z,19.78
2022-10-11T00:40:46.562Z,19.89
2022-10-11T00:43:23.126Z,19.82
2022-10-11T00:45:55.696Z,19.81
2022-10-11T00:48:33.277Z,19.96
2022-10-11T00:51:02.645Z,19.96
2022-10-11T00:53:31.549Z,19.95
2022-10-11T00:56:07.303Z,20.01
2022-10-11T00:58:36.334Z,20.09
2022-10-11T01:01:03.389Z,20.14
2022-10-11T01:03:31.926Z,19.94
2022-10-11T01:05:58.424Z,19.91
2022-10-11T01:08:27.078Z,19.94
2022-10-11T01:10:53.754Z,19.85
2022-10-11T01:14:03.056Z,19.91
2022-10-11T01:16:52.778Z,19.82
2022-10-11T01:19:42.139Z,19.90
2022-10-11T01:22:28.848Z,19.86
2022-10-11T01:25:12.169Z,19.90
2022-10-11T01:27:48.385Z,19.98
2022-10-11T01:30:41.154Z,20.03
2022-10-11T01:33:13.660Z,19.91
2022-10-11T01:35:44.689Z,19.88
2022-10-11T01:38:32.873Z,20.02
2022-10-11T01:41:04.123Z,20.04
2022-10-11T01:43:32.141Z,20.01
2022-10-11T01:46:00.485Z,19.90
2022-10-11T01:48:27.010Z,19.87
2022-10-11T01:50:57.249Z,19.89
2022-10-11T01:53:55.064Z,19.94
2022-10-11T01:56:49.274Z,19.88
2022-10-11T01:59:37.668Z,19.69
2022-10-11T02:02:13.287Z,19.68
2022-10-11T02:04:48.650Z,19.65
2022-10-11T02:07:33.837Z,19.69
2022-10-11T02:10:34.817Z,19.78
2022-10-11T02:13:27.417Z,19.79
2022-10-11T02:15:57.437Z,19.71
2022-10-11T02:18:28.785Z,19.76
2022-10-11T02:21:00.748Z,19.73
2022-10-11T02:23:33.261Z,19.76
2022-10-11T02:26:01.257Z,19.70
2022-10-11T02:28:31.686Z,19.71
2022-10-11T02:31:01.384Z,19.68
2022-10-11T02:33:36.367Z,19.89
2022-10-11T02:36:09.921Z,19.87
2022-10-11T02:38:43.937Z,19.83
2022-10-11T02:41:19.161Z,19.87
2022-10-11T02:43:54.067Z,19.74
2022-10-11T02:46:21.733Z,19.76
2022-10-11T02:48:48.550Z,19.74
2022-10-11T02:51:15.150Z,19.76
2022-10-11T02:53:41.727Z,19.87
2022-10-11T02:56:08.662Z,19.95
2022-10-11T02:58:35.780Z,19.97
2022-10-11T03:01:02.477Z,19.96
2022-10-11T03:03:28.938Z,19.89
2022-10-11T03:06:02.704Z,19.93
2022-10-11T03:08:29.583Z,19.91
2022-10-11T03:10:56.118Z,19.96
2022-10-11T03:13:22.838Z,19.91
2022-10-11T03:16:02.373Z,19.92
2022-10-11T03:18:34.165Z,19.94
2022-10-11T03:21:00.701Z,19.93
2022-10-11T03:23:27.331Z,20.10
2022-10-11T03:25:53.958Z,20.06
2022-10-11T03:28:20.724Z,19.96
2022-10-11T03:30:51.391Z,19.98
2022-10-11T03:33:18.267Z,19.93
2022-10-11T03:35:48.602Z,19.93
2022-10-11T03:38:18.315Z,19.94
2022-10-11T03:40:45.041Z,19.88
2022-10-11T03:43:11.794Z,19.82
2022-10-11T03:45:39.172Z,19.82
2022-10-11T03:48:05.994Z,19.81
2022-10-11T03:50:32.477Z,19.88
2022-10-11T03:52:59.041Z,19.86
2022-10-11T03:55:25.651Z,19.89
2022-10-11T03:57:52.152Z,19.90
2022-10-11T04:00:18.716Z,19.87
2022-10-11T04:02:45.322Z,19.76
2022-10-11T04:05:12.651Z,19.64
2022-10-11T04:07:39.919Z,19.79
2022-10-11T04:10:07.679Z,19.77
2022-10-11T04:12:34.438Z,19.75
2022-10-11T04:15:00.970Z,19.67
2022-10-11T04:17:27.504Z,19.59
2022-10-11T04:19:54.013Z,19.54
2022-10-11T04:22:20.526Z,19.58
2022-10-11T04:24:47.068Z,19.54
2022-10-11T04:27:13.632Z,19.51
2022-10-11T04:29:40.130Z,19.42
2022-10-11T04:32:06.655Z,19.30
2022-10-11T04:34:33.183Z,19.28
2022-10-11T04:36:59.839Z,19.28
2022-10-11T04:39:26.463Z,19.36
2022-10-11T04:41:52.993Z,19.31
2022-10-11T04:44:19.507Z,19.40
2022-10-11T04:46:46.026Z,19.24
2022-10-11T04:49:12.837Z,19.23
2022-10-11T04:51:39.416Z,19.22
2022-10-11T04:54:05.999Z,19.27
2022-10-11T04:56:32.658Z,19.25
2022-10-11T04:58:59.157Z,19.27
2022-10-11T05:01:25.694Z,19.18
2022-10-11T05:03:52.226Z,19.11
2022-10-11T05:06:20.238Z,19.11
2022-10-11T05:08:46.836Z,19.10
2022-10-11T05:11:16.094Z,19.08
2022-10-11T05:13:44.466Z,19.13
2022-10-11T05:16:12.629Z,19.22
2022-10-11T05:18:40.303Z,19.16
2022-10-11T05:21:19.031Z,19.19
2022-10-11T05:23:47.043Z,19.09
2022-10-11T05:26:15.041Z,19.09
2022-10-11T05:28:41.729Z,19.02
2022-10-11T05:31:08.617Z,19.10
2022-10-11T05:33:35.277Z,19.04
2022-10-11T05:36:02.415Z,18.96
2022-10-11T05:38:29.271Z,18.96
2022-10-11T05:40:59.566Z,18.99
2022-10-11T05:43:26.216Z,18.90
2022-10-11T05:45:52.878Z,18.84
2022-10-11T05:48:19.539Z,18.84
2022-10-11T05:50:46.610Z,18.71
2022-10-11T05:53:13.139Z,18.71
2022-10-11T05:55:41.579Z,18.79
2022-10-11T05:58:15.078Z,18.65
2022-10-11T06:00:41.588Z,18.59
2022-10-11T06:03:10.449Z,18.43
2022-10-11T06:05:37.336Z,18.43
2022-10-11T06:08:06.606Z,18.42
2022-10-11T06:10:33.223Z,18.42
2022-10-11T06:12:59.794Z,18.44
2022-10-11T06:15:26.603Z,18.41
2022-10-11T06:17:53.458Z,18.47
2022-10-11T06:20:19.993Z,18.45
2022-10-11T06:22:46.905Z,18.53
2022-10-11T06:25:13.437Z,18.49
2022-10-11T06:27:39.996Z,18.59
2022-10-11T06:30:07.382Z,18.55
2022-10-11T06:32:34.160Z,18.50
2022-10-11T06:35:00.794Z,18.37
2022-10-11T06:37:27.325Z,18.23
2022-10-11T06:39:53.918Z,18.25
2022-10-11T06:42:20.491Z,18.28
2022-10-11T06:44:47.069Z,18.26
2022-10-11T06:47:13.587Z,18.19
2022-10-11T06:49:40.149Z,18.38
2022-10-11T06:52:07.062Z,18.64
2022-10-11T06:54:33.547Z,18.70
2022-10-11T06:57:00.163Z,18.70
2022-10-11T06:59:26.696Z,18.58
2022-10-11T07:01:53.366Z,18.50
2022-10-11T07:04:20.872Z,18.52
2022-10-11T07:06:47.806Z,18.57
2022-10-11T07:09:14.314Z,18.46
2022-10-11T07:11:40.906Z,18.51
2022-10-11T07:14:07.982Z,18.64
2022-10-11T07:16:36.238Z,18.79
2022-10-11T07:19:04.830Z,18.96
2022-10-11T07:21:33.009Z,18.81
2022-10-11T07:24:00.197Z,18.89
2022-10-11T07:26:27.404Z,18.86
2022-10-11T07:28:54.228Z,18.88
2022-10-11T07:31:24.050Z,18.85
2022-10-11T07:33:51.167Z,18.89
2022-10-11T07:36:17.848Z,19.01
2022-10-11T07:38:46.373Z,19.04
2022-10-11T07:41:13.968Z,19.15
2022-10-11T07:43:40.549Z,19.25
2022-10-11T07:46:07.550Z,19.11
2022-10-11T07:48:35.870Z,19.26
2022-10-11T07:51:15.181Z,19.36
2022-10-11T07:53:43.664Z,19.32
2022-10-11T07:56:12.655Z,19.45
2022-10-11T07:58:40.270Z,19.20
2022-10-11T08:01:07.125Z,19.33
2022-10-11T08:03:34.153Z,19.40
2022-10-11T08:06:04.018Z,19.39
2022-10-11T08:08:31.284Z,19.63
2022-10-11T08:10:59.153Z,19.82
2022-10-11T08:13:26.625Z,19.81
2022-10-11T08:15:54.138Z,19.85
2022-10-11T08:18:21.194Z,19.99
2022-10-11T08:20:48.160Z,20.04
2022-10-11T08:23:16.791Z,20.20
2022-10-11T08:25:47.347Z,20.02
2022-10-11T08:28:17.918Z,20.09
2022-10-11T08:30:49.775Z,20.18
2022-10-11T08:33:17.975Z,20.34
2022-10-11T08:35:45.218Z,20.52
2022-10-11T08:38:11.957Z,20.53
2022-10-11T08:40:45.321Z,20.47
2022-10-11T08:43:35.487Z,20.53
2022-10-11T08:46:05.008Z,20.44
2022-10-11T08:48:40.847Z,20.67
2022-10-11T08:51:24.223Z,20.87
2022-10-11T08:53:56.618Z,20.85
2022-10-11T08:56:25.698Z,20.83
2022-10-11T08:58:57.718Z,20.80
2022-10-11T09:01:27.570Z,20.74
2022-10-11T09:03:55.198Z,20.75
2022-10-11T09:06:22.265Z,20.84
2022-10-11T09:09:23.317Z,21.08
2022-10-11T09:12:18.071Z,21.03
2022-10-11T09:14:50.594Z,21.17
2022-10-11T09:17:32.406Z,21.26
2022-10-11T09:20:24.884Z,21.23
2022-10-11T09:23:16.208Z,21.18
2022-10-11T09:26:02.435Z,21.31
2022-10-11T09:28:57.410Z,21.12
2022-10-11T09:31:28.873Z,21.28
2022-10-11T09:33:56.046Z,21.45
2022-10-11T09:36:33.999Z,21.33
2022-10-11T09:39:22.826Z,21.21
2022-10-11T09:41:56.766Z,21.47
2022-10-11T09:44:27.160Z,21.52
2022-10-11T09:46:55.673Z,21.68
2022-10-11T09:49:29.111Z,21.60
2022-10-11T09:51:58.745Z,21.61
2022-10-11T09:54:49.742Z,21.41
2022-10-11T09:57:24.583Z,21.50
2022-10-11T10:00:20.582Z,21.68
2022-10-11T10:02:51.907Z,21.55
2022-10-11T10:05:32.768Z,21.80
2022-10-11T10:08:04.750Z,21.69
2022-10-11T10:10:40.522Z,21.55
2022-10-11T10:13:21.873Z,21.65
2022-10-11T10:15:55.275Z,21.86
2022-10-11T10:18:32.548Z,21.84
2022-10-11T10:20:59.922Z,21.66
2022-10-11T10:23:30.069Z,21.69
2022-10-11T10:26:22.717Z,22.03
2022-10-11T10:29:16.860Z,21.81
2022-10-11T10:32:12.912Z,21.89
2022-10-11T10:34:41.182Z,21.77
2022-10-11T10:37:29.433Z,21.77
2022-10-11T10:40:20.819Z,21.69
2022-10-11T10:42:47.608Z,21.78
2022-10-11T10:45:21.219Z,21.93
2022-10-11T10:48:10.726Z,21.74
2022-10-11T10:51:10.530Z,21.73
2022-10-11T10:53:44.354Z,21.95
2022-10-11T10:56:13.891Z,21.74
2022-10-11T10:58:55.476Z,21.98
2022-10-11T11:01:33.950Z,22.07
2022-10-11T11:04:24.260Z,22.03
2022-10-11T11:07:23.827Z,22.08
2022-10-11T11:10:06.270Z,22.24
2022-10-11T11:12:46.378Z,22.24
2022-10-11T11:15:34.267Z,22.29
2022-10-11T11:18:52.443Z,22.23
2022-10-11T11:21:18.837Z,22.33
2022-10-11T11:24:12.899Z,22.14
2022-10-11T11:27:10.893Z,22.21
2022-10-11T11:29:50.752Z,22.30
2022-10-11T11:32:24.030Z,22.27
2022-10-11T11:35:03.810Z,22.44
2022-10-11T11:37:40.757Z,22.51
2022-10-11T11:40:19.806Z,22.51
2022-10-11T11:42:49.057Z,22.67
2022-10-11T11:45:24.062Z,22.75
2022-10-11T11:48:03.278Z,22.81
2022-10-11T11:50:44.985Z,22.73
2022-10-11T11:53:34.313Z,22.72
2022-10-11T11:56:25.670Z,22.68
2022-10-11T11:59:05.668Z,22.69
2022-10-11T12:01:35.030Z,22.78
2022-10-11T12:04:34.181Z,22.79
2022-10-11T12:07:15.826Z,22.89
2022-10-11T12:09:46.656Z,23.05
2022-10-11T12:12:36.405Z,23.05
2022-10-11T12:15:21.106Z,23.26
2022-10-11T12:17:53.587Z,23.34
2022-10-11T12:20:41.697Z,23.46
2022-10-11T12:23:29.162Z,23.29
2022-10-11T12:26:27.884Z,23.30
2022-10-11T12:28:57.323Z,23.42
2022-10-11T12:31:26.602Z,23.32
2022-10-11T12:34:02.356Z,23.22
2022-10-11T12:36:29.644Z,23.18
2022-10-11T12:39:20.901Z,23.19
2022-10-11T12:41:47.380Z,23.17
2022-10-11T12:44:23.771Z,23.25
2022-10-11T12:46:50.282Z,23.17
2022-10-11T12:49:16.735Z,23.05
2022-10-11T12:51:55.665Z,23.11
2022-10-11T12:54:37.136Z,23.17
2022-10-11T12:57:06.359Z,23.09
2022-10-11T12:59:39.713Z,23.29
2022-10-11T13:02:28.713Z,23.35
2022-10-11T13:05:23.503Z,23.46
2022-10-11T13:07:52.332Z,23.55
2022-10-11T13:10:33.230Z,23.45
2022-10-11T13:13:04.345Z,23.41
2022-10-11T13:15:31.399Z,23.56
2022-10-11T13:18:00.163Z,23.65
2022-10-11T13:20:31.280Z,23.52
2022-10-11T13:22:58.677Z,23.65
2022-10-11T13:25:27.090Z,23.63
2022-10-11T13:27:56.681Z,23.60
2022-10-11T13:30:29.594Z,23.91
2022-10-11T13:32:56.676Z,23.74
2022-10-11T13:35:31.616Z,23.75
2022-10-11T13:37:58.881Z,23.86
2022-10-11T13:40:26.728Z,23.92
2022-10-11T13:42:55.135Z,24.10
2022-10-11T13:45:24.821Z,24.03
2022-10-11T13:47:52.980Z,24.12
2022-10-11T13:50:23.888Z,23.93
2022-10-11T13:52:54.311Z,23.88
2022-10-11T13:55:28.894Z,23.92
2022-10-11T13:57:58.012Z,23.78
2022-10-11T14:00:47.512Z,24.05
2022-10-11T14:03:13.940Z,23.88
2022-10-11T14:05:43.352Z,23.69
2022-10-11T14:08:25.315Z,23.74
2022-10-11T14:10:56.753Z,23.72
2022-10-11T14:13:31.738Z,23.70
2022-10-11T14:16:06.211Z,23.84
2022-10-11T14:18:45.522Z,23.90
2022-10-11T14:21:18.730Z,23.92
2022-10-11T14:23:46.636Z,23.80
2022-10-11T14:26:18.557Z,23.76
2022-10-11T14:28:46.064Z,23.91
2022-10-11T14:31:12.696Z,23.97
2022-10-11T14:33:39.364Z,23.91
2022-10-11T14:36:06.278Z,23.86
2022-10-11T14:38:32.948Z,23.88
2022-10-11T14:40:59.457Z,24.06
2022-10-11T14:43:26.194Z,24.04
2022-10-11T14:45:53.238Z,24.04
2022-10-11T14:48:36.612Z,23.98
2022-10-11T14:51:07.243Z,23.72
2022-10-11T14:53:36.363Z,23.97
2022-10-11T14:56:08.130Z,23.83
2022-10-11T14:58:34.865Z,24.17
2022-10-11T15:01:01.337Z,24.07
2022-10-11T15:03:27.917Z,24.28
2022-10-11T15:05:54.834Z,24.19
2022-10-11T15:08:21.382Z,24.02
2022-10-11T15:10:48.100Z,24.00
2022-10-11T15:13:14.686Z,23.89
2022-10-11T15:15:41.592Z,23.94
2022-10-11T15:18:12.374Z,24.18
2022-10-11T15:20:42.369Z,24.19
2022-10-11T15:23:10.800Z,23.94
2022-10-11T15:25:38.943Z,23.93
2022-10-11T15:28:06.789Z,23.95
2022-10-11T15:30:40.982Z,24.08
2022-10-11T15:33:09.025Z,24.01
2022-10-11T15:35:35.887Z,24.09
2022-10-11T15:38:02.378Z,24.09
2022-10-11T15:40:36.832Z,24.28
2022-10-11T15:43:03.721Z,24.17
2022-10-11T15:45:30.949Z,24.03
2022-10-11T15:47:58.117Z,23.90
2022-10-11T15:50:34.475Z,23.84
2022-10-11T15:53:04.860Z,23.85
2022-10-11T15:55:33.846Z,24.00
2022-10-11T15:58:01.547Z,24.03
2022-10-11T16:00:29.035Z,23.98
2022-10-11T16:02:57.308Z,23.77
2022-10-11T16:05:26.631Z,23.82
2022-10-11T16:07:54.512Z,23.68
2022-10-11T16:10:21.725Z,23.85
2022-10-11T16:12:48.438Z,23.86
2022-10-11T16:15:15.377Z,23.83
2022-10-11T16:17:41.946Z,23.70
2022-10-11T16:20:08.903Z,23.50
2022-10-11T16:22:35.922Z,23.55
2022-10-11T16:25:04.516Z,23.29
2022-10-11T16:27:31.394Z,23.35
2022-10-11T16:29:58.264Z,23.53
2022-10-11T16:32:25.402Z,23.66
2022-10-11T16:34:51.931Z,23.73
2022-10-11T16:37:18.958Z,23.61
2022-10-11T16:39:46.302Z,23.52
2022-10-11T16:42:12.797Z,23.53
2022-10-11T16:44:39.351Z,23.84
2022-10-11T16:47:06.722Z,23.98
2022-10-11T16:49:33.545Z,23.84
2022-10-11T16:52:02.229Z,23.71
2022-10-11T16:54:30.292Z,23.47
2022-10-11T16:56:58.022Z,23.16
2022-10-11T16:59:24.841Z,23.08
2022-10-11T17:01:51.546Z,23.22
2022-10-11T17:04:18.165Z,23.34
2022-10-11T17:06:44.970Z,23.31
2022-10-11T17:09:11.593Z,23.20
2022-10-11T17:11:38.099Z,23.16
2022-10-11T17:14:06.031Z,23.09
2022-10-11T17:16:32.731Z,23.03
2022-10-11T17:18:59.237Z,22.98
2022-10-11T17:21:25.852Z,22.92
2022-10-11T17:23:52.403Z,22.81
2022-10-11T17:26:26.287Z,22.76
2022-10-11T17:28:54.890Z,22.85
2022-10-11T17:31:22.195Z,22.80
2022-10-11T17:33:48.770Z,22.80
2022-10-11T17:36:18.310Z,22.71
2022-10-11T17:38:45.308Z,22.59
2022-10-11T17:41:12.218Z,22.53
2022-10-11T17:43:38.925Z,22.47
2022-10-11T17:46:06.746Z,22.53
2022-10-11T17:48:36.658Z,22.63
2022-10-11T17:51:18.493Z,22.55
2022-10-11T17:53:47.295Z,22.48
2022-10-11T17:56:17.194Z,22.49
2022-10-11T17:58:44.085Z,22.42
2022-10-11T18:01:13.583Z,22.37
2022-10-11T18:03:40.982Z,22.26
2022-10-11T18:06:10.806Z,22.18
2022-10-11T18:08:40.619Z,22.25
2022-10-11T18:11:13.074Z,22.20
2022-10-11T18:13:42.931Z,22.19
2022-10-11T18:16:10.467Z,22.30
2022-10-11T18:18:37.363Z,22.29
2022-10-11T18:21:04.073Z,22.21
2022-10-11T18:23:31.392Z,22.20
2022-10-11T18:25:57.858Z,22.15
2022-10-11T18:28:25.289Z,22.10
2022-10-11T18:30:53.372Z,22.03
2022-10-11T18:33:19.932Z,22.03
2022-10-11T18:35:46.531Z,22.08
2022-10-11T18:38:13.098Z,22.09
2022-10-11T18:40:44.726Z,22.04
2022-10-11T18:43:13.404Z,21.98
2022-10-11T18:45:39.938Z,21.93
2022-10-11T18:48:08.566Z,21.89
2022-10-11T18:50:35.621Z,21.83
2022-10-11T18:53:02.361Z,21.81
2022-10-11T18:55:28.902Z,21.76
2022-10-11T18:57:55.919Z,21.77
2022-10-11T19:00:40.125Z,21.73
2022-10-11T19:03:07.532Z,21.71
2022-10-11T19:05:34.046Z,21.68
2022-10-11T19:08:00.523Z,21.68
2022-10-11T19:10:27.167Z,21.65
2022-10-11T19:12:53.664Z,21.62
2022-10-11T19:15:20.129Z,21.69
2022-10-11T19:17:46.647Z,21.65
2022-10-11T19:20:13.182Z,21.73
2022-10-11T19:22:39.982Z,21.73
2022-10-11T19:25:06.785Z,21.62
2022-10-11T19:27:33.286Z,21.56
2022-10-11T19:30:00.429Z,21.64
2022-10-11T19:32:28.662Z,21.60
2022-10-11T19:34:55.434Z,21.55
2022-10-11T19:37:22.004Z,21.43
2022-10-11T19:39:48.543Z,21.48
2022-10-11T19:42:16.060Z,21.38
2022-10-11T19:44:44.694Z,21.27
2022-10-11T19:47:11.526Z,21.26
2022-10-11T19:49:38.658Z,21.37
2022-10-11T19:52:05.297Z,21.42
2022-10-11T19:54:32.114Z,21.40
2022-10-11T19:56:59.399Z,21.30
2022-10-11T19:59:26.865Z,21.27
2022-10-11T20:01:53.577Z,21.28
2022-10-11T20:04:51.106Z,21.28
2022-10-11T20:07:07.600Z,21.33
2022-10-11T20:09:34.136Z,21.33
2022-10-11T20:12:00.613Z,21.27
2022-10-11T20:14:27.159Z,21.31
2022-10-11T20:16:53.814Z,21.23
2022-10-11T20:19:23.893Z,21.27
2022-10-11T20:21:54.432Z,21.20
2022-10-11T20:24:20.952Z,21.23
2022-10-11T20:26:47.486Z,21.22
2022-10-11T20:29:13.974Z,21.16
2022-10-11T20:31:41.788Z,21.17
2022-10-11T20:34:10.022Z,21.17
2022-10-11T20:36:36.812Z,21.13
2022-10-11T20:39:05.902Z,21.10
2022-10-11T20:41:36.943Z,21.04
2022-10-11T20:44:04.812Z,21.03
2022-10-11T20:46:33.959Z,21.08
2022-10-11T20:49:03.498Z,21.05
2022-10-11T20:51:33.359Z,21.04
2022-10-11T20:54:01.013Z,21.09
2022-10-11T20:56:28.100Z,21.02
2022-10-11T20:58:56.335Z,20.92
2022-10-11T21:01:26.357Z,20.86
2022-10-11T21:03:53.159Z,20.80
2022-10-11T21:06:19.693Z,20.72
2022-10-11T21:08:46.229Z,20.78
2022-10-11T21:11:12.725Z,20.85
2022-10-11T21:13:40.493Z,20.70
2022-10-11T21:16:12.729Z,20.67
2022-10-11T21:18:39.694Z,20.73
2022-10-11T21:21:11.723Z,20.63
2022-10-11T21:23:38.872Z,20.49
2022-10-11T21:26:08.255Z,20.59
2022-10-11T21:28:35.087Z,20.52
2022-10-11T21:31:09.905Z,20.54
2022-10-11T21:33:37.483Z,20.54
2022-10-11T21:36:12.856Z,20.58
2022-10-11T21:38:39.978Z,20.56
2022-10-11T21:41:09.990Z,20.56
2022-10-11T21:43:38.134Z,20.51
2022-10-11T21:46:09.717Z,20.45
2022-10-11T21:48:36.181Z,20.32
2022-10-11T21:51:02.803Z,20.23
2022-10-11T21:53:29.609Z,20.29
2022-10-11T21:56:00.948Z,20.42
2022-10-11T21:58:28.118Z,20.35
2022-10-11T22:00:54.985Z,20.34
2022-10-11T22:03:21.555Z,20.28
2022-10-11T22:05:48.544Z,20.33
2022-10-11T22:08:15.256Z,20.27
2022-10-11T22:10:52.001Z,20.30
2022-10-11T22:13:18.546Z,20.16
2022-10-11T22:15:45.017Z,20.19
2022-10-11T22:18:11.640Z,20.23
2022-10-11T22:20:38.216Z,20.39
2022-10-11T22:23:04.935Z,20.47
2022-10-11T22:25:35.755Z,20.37
2022-10-11T22:28:02.622Z,20.35
2022-10-11T22:30:29.133Z,20.23
2022-10-11T22:32:55.670Z,20.18
2022-10-11T22:35:22.438Z,20.15
2022-10-11T22:37:50.348Z,20.11
2022-10-11T22:40:17.921Z,20.10
2022-10-11T22:42:44.718Z,20.02
2022-10-11T22:45:11.608Z,19.86
2022-10-11T22:47:38.600Z,19.90
2022-10-11T22:50:05.705Z,19.54
2022-10-11T22:52:32.176Z,19.68
2022-10-11T22:54:58.673Z,19.73
2022-10-11T22:57:25.201Z,19.77
2022-10-11T22:59:51.730Z,19.76
2022-10-11T23:02:18.253Z,19.78
2022-10-11T23:04:44.773Z,19.69
2022-10-11T23:07:11.261Z,19.66
2022-10-11T23:09:38.249Z,19.35
2022-10-11T23:12:05.106Z,19.73
2022-10-11T23:14:31.596Z,19.30
2022-10-11T23:16:58.078Z,19.18
2022-10-11T23:19:24.597Z,19.07
2022-10-11T23:21:51.109Z,19.01
2022-10-11T23:24:17.638Z,19.05
2022-10-11T23:26:44.239Z,19.09
2022-10-11T23:29:10.891Z,19.04
2022-10-11T23:31:37.444Z,19.06
2022-10-11T23:34:03.998Z,19.18
2022-10-11T23:36:30.521Z,19.23
2022-10-11T23:38:58.603Z,19.26
2022-10-11T23:41:27.663Z,18.79
2022-10-11T23:43:54.557Z,18.99
2022-10-11T23:46:21.243Z,19.01
2022-10-11T23:48:48.326Z,19.03
2022-10-11T23:51:15.791Z,18.87
2022-10-11T23:53:42.365Z,19.04
2022-10-11T23:56:11.715Z,19.03
2022-10-11T23:58:38.623Z,19.07
